KSBY

Salisbury-Ocean City Wicomico Regional Airport

Salisbury, Maryland, USA
METAR KSBY 181554Z 33013G17KT 10SM CLR 13/00 A3041 RMK AO2 SLP300 T01280000
Observed Flight Rules
Oct-18 @ 15:54 UTC (57 minutes ago) Visual Flight Rules
Wind Visibility Clouds
330° at 13 knots
 Gusting to 17 knots
10 miles
  • Clear skies
Temperatures Readings
Current 13°C / 55°F
Dewpoint 0°C / 32°F
Humidity 41%
Altimeter 30.41" Hg
Pressure 1030 hPa
Elevation 19
METAR KSBY 181554Z 33013G17KT 10SM CLR 13/00 A3041 RMK AO2 SLP300 T01280000
Observed Flight Rules
Oct-18 @ 15:54 UTC
(57 minutes ago)
VFR
Wind Visibility
330° at 13 knots
 Gusting to 17 knots
10 miles
Clouds
  • Clear skies
Temperature Dewpoint
13°C / 55°F 0°C / 32°F
Humidity Altimeter Pressure
41% 30.41" Hg 1030 hPa